Time;durP1;ratioP1;P1;durP2;ratioP2;P2;SDS_P1;SDS_P2;PMS_P1;PMS_P2;Temp;Humidity;BMP_temperature;BMP_pressure;BME280_temperature;BME280_humidity;BME280_pressure;Samples;Min_cycle;Max_cycle;Signal;HPM_P1;HPM_P2
2022/03/24 00:01:31;;;;;;;1.20;1.10;;;;;;;;;;4963621;28;20046;-92
2022/03/24 00:03:57;;;;;;;0.65;0.65;;;;;;;;;;4969082;28;20061;-92
2022/03/24 00:06:23;;;;;;;0.40;0.40;;;;;;;;;;4967625;28;20042;-91
2022/03/24 00:08:49;;;;;;;0.38;0.38;;;;;;;;;;4967409;28;20074;-92
2022/03/24 00:11:17;;;;;;;3.25;2.47;;;;;;;;;;4967500;28;20050;-91
2022/03/24 00:13:43;;;;;;;3.67;2.42;;;;;;;;;;4963373;28;20042;-93
2022/03/24 00:16:09;;;;;;;1.10;0.57;;;;;;;;;;4963636;28;20045;-92
2022/03/24 00:18:35;;;;;;;0.60;0.60;;;;;;;;;;4975348;28;20085;-91
2022/03/24 00:21:02;;;;;;;1.27;1.17;;;;;;;;;;4969465;28;20038;-91
2022/03/24 00:23:32;;;;;;;0.90;0.88;;;;;;;;;;4982215;28;20062;-92
2022/03/24 00:25:58;;;;;;;0.35;0.35;;;;;;;;;;4942955;28;20066;-93
2022/03/24 00:28:26;;;;;;;0.65;0.63;;;;;;;;;;4973969;28;20078;-92
2022/03/24 00:30:53;;;;;;;1.10;1.02;;;;;;;;;;4968628;28;20043;-92
2022/03/24 00:33:19;;;;;;;2.13;1.92;;;;;;;;;;4961723;28;20047;-90
2022/03/24 00:35:45;;;;;;;1.00;0.88;;;;;;;;;;4962030;28;20118;-92
2022/03/24 00:38:11;;;;;;;1.40;1.02;;;;;;;;;;4971542;28;20054;-91
2022/03/24 00:40:37;;;;;;;7.32;3.38;;;;;;;;;;4956174;28;20103;-91
2022/03/24 00:43:05;;;;;;;2.58;1.95;;;;;;;;;;4974203;28;20046;-92
2022/03/24 00:45:31;;;;;;;0.73;0.70;;;;;;;;;;4974582;28;20057;-90
2022/03/24 00:47:57;;;;;;;0.45;0.45;;;;;;;;;;4968232;28;20038;-90
2022/03/24 00:50:23;;;;;;;1.42;1.30;;;;;;;;;;4968338;28;20046;-92
2022/03/24 00:52:49;;;;;;;4.22;2.08;;;;;;;;;;4968224;28;20046;-91
2022/03/24 00:55:17;;;;;;;0.90;0.82;;;;;;;;;;4984094;28;20077;-90
2022/03/24 00:57:44;;;;;;;1.73;1.60;;;;;;;;;;4968766;28;20102;-91
2022/03/24 01:00:20;;;;;;;3.20;2.58;;;;;;;;;;4968619;28;20039;-91
2022/03/24 01:02:48;;;;;;;3.08;2.13;;;;;;;;;;4991203;28;20126;-91
2022/03/24 01:05:17;;;;;;;2.65;1.50;;;;;;;;;;4962410;28;20057;-91
2022/03/24 01:07:44;;;;;;;2.33;1.95;;;;;;;;;;4955295;28;20047;-91
2022/03/24 01:10:11;;;;;;;6.35;1.02;;;;;;;;;;4961616;28;20038;-91
2022/03/24 01:12:39;;;;;;;1.45;0.98;;;;;;;;;;4977813;28;20042;-91
2022/03/24 01:15:06;;;;;;;0.60;0.60;;;;;;;;;;4948065;28;20045;-90
2022/03/24 01:17:32;;;;;;;0.60;0.60;;;;;;;;;;4961406;28;20492;-89
2022/03/24 01:19:58;;;;;;;1.15;1.05;;;;;;;;;;4974237;28;20074;-91
2022/03/24 01:22:24;;;;;;;0.43;0.43;;;;;;;;;;4956348;28;20038;-92
2022/03/24 01:24:50;;;;;;;0.55;0.55;;;;;;;;;;4960492;28;20046;-92
2022/03/24 01:27:16;;;;;;;0.40;0.40;;;;;;;;;;4956721;28;20070;-91
2022/03/24 01:29:42;;;;;;;1.75;1.42;;;;;;;;;;4961841;28;20043;-90
2022/03/24 01:32:09;;;;;;;4.25;2.53;;;;;;;;;;4971901;28;20050;-92
2022/03/24 01:34:35;;;;;;;2.25;1.90;;;;;;;;;;4951685;28;20042;-85
2022/03/24 01:37:01;;;;;;;1.90;0.95;;;;;;;;;;4955679;28;20496;-84
2022/03/24 01:39:27;;;;;;;1.30;1.20;;;;;;;;;;4958913;28;20046;-84
2022/03/24 01:41:54;;;;;;;1.98;0.93;;;;;;;;;;4945081;28;20101;-84
2022/03/24 01:44:21;;;;;;;3.70;1.48;;;;;;;;;;4942322;28;20141;-83
2022/03/24 01:46:54;;;;;;;0.98;0.88;;;;;;;;;;4945496;28;20042;-84
2022/03/24 01:49:20;;;;;;;0.65;0.65;;;;;;;;;;4948145;28;20396;-85
2022/03/24 01:51:46;;;;;;;1.33;1.20;;;;;;;;;;4961554;28;20050;-84
2022/03/24 01:54:49;;;;;;;0.88;0.75;;;;;;;;;;4961238;28;20531;-85
2022/03/24 01:57:17;;;;;;;0.65;0.65;;;;;;;;;;4948411;28;20073;-85
2022/03/24 01:59:43;;;;;;;4.57;2.53;;;;;;;;;;4971017;28;20100;-85
2022/03/24 02:02:10;;;;;;;1.67;1.30;;;;;;;;;;4948605;28;20044;-85
2022/03/24 02:04:36;;;;;;;3.72;2.08;;;;;;;;;;4956344;28;20182;-83
2022/03/24 02:07:03;;;;;;;1.63;1.40;;;;;;;;;;4953024;28;20089;-84
2022/03/24 02:09:29;;;;;;;2.17;1.45;;;;;;;;;;4958149;28;20054;-84
2022/03/24 02:11:55;;;;;;;5.18;2.72;;;;;;;;;;4941753;28;20038;-83
2022/03/24 02:14:21;;;;;;;6.47;2.33;;;;;;;;;;4949059;28;20038;-82
2022/03/24 02:16:48;;;;;;;2.90;1.67;;;;;;;;;;4954108;28;20093;-84
2022/03/24 02:19:16;;;;;;;2.45;1.95;;;;;;;;;;4970579;28;20046;-83
2022/03/24 02:21:43;;;;;;;3.85;2.58;;;;;;;;;;4954148;28;20069;-83
2022/03/24 02:24:09;;;;;;;2.33;1.75;;;;;;;;;;4977016;28;20053;-83
2022/03/24 02:26:36;;;;;;;4.97;3.25;;;;;;;;;;4960529;28;20488;-84
2022/03/24 02:29:07;;;;;;;2.22;2.05;;;;;;;;;;4928989;28;20457;-83
2022/03/24 02:31:38;;;;;;;4.22;2.22;;;;;;;;;;4948688;28;20047;-84
2022/03/24 02:36:50;;;;;;;7.18;4.40;;;;;;;;;;4960660;28;20396;-84
2022/03/24 02:39:16;;;;;;;14.20;6.07;;;;;;;;;;4947701;28;20042;-84
2022/03/24 02:41:46;;;;;;;3.35;2.55;;;;;;;;;;4945311;28;20408;-83
2022/03/24 02:44:17;;;;;;;2.10;1.75;;;;;;;;;;4949274;28;20040;-83
2022/03/24 02:46:43;;;;;;;5.60;1.95;;;;;;;;;;4941917;28;20427;-83
2022/03/24 02:49:10;;;;;;;1.27;1.17;;;;;;;;;;4957230;28;20040;-83
2022/03/24 02:51:36;;;;;;;2.10;1.75;;;;;;;;;;4960049;28;20500;-84
2022/03/24 02:54:04;;;;;;;4.25;3.85;;;;;;;;;;4985340;28;20062;-83
2022/03/24 02:56:30;;;;;;;1.95;0.93;;;;;;;;;;4945085;28;20051;-84
2022/03/24 02:58:57;;;;;;;3.15;1.38;;;;;;;;;;4951833;28;20046;-83
2022/03/24 03:01:27;;;;;;;3.00;1.27;;;;;;;;;;4952556;28;20484;-83
2022/03/24 03:03:54;;;;;;;0.40;0.40;;;;;;;;;;4954656;28;20043;-84
2022/03/24 03:06:20;;;;;;;1.17;1.08;;;;;;;;;;4951371;28;20039;-84
2022/03/24 03:08:50;;;;;;;1.35;1.17;;;;;;;;;;4971746;28;20512;-85
2022/03/24 03:11:16;;;;;;;3.78;2.35;;;;;;;;;;4948035;28;20562;-83
2022/03/24 03:13:46;;;;;;;0.40;0.40;;;;;;;;;;4973993;28;20085;-83
2022/03/24 03:16:12;;;;;;;1.75;1.38;;;;;;;;;;4971038;28;20086;-84
2022/03/24 03:18:39;;;;;;;1.40;1.30;;;;;;;;;;4945278;28;20039;-83
2022/03/24 03:21:05;;;;;;;6.05;2.97;;;;;;;;;;4951571;28;20035;-82
2022/03/24 03:23:31;;;;;;;4.22;2.17;;;;;;;;;;4957644;28;20038;-85
2022/03/24 03:25:57;;;;;;;1.00;0.98;;;;;;;;;;4945399;28;20095;-83
2022/03/24 03:28:23;;;;;;;2.08;1.80;;;;;;;;;;4949904;28;20042;-84
2022/03/24 03:30:49;;;;;;;0.77;0.77;;;;;;;;;;4952650;28;20498;-84
2022/03/24 03:33:15;;;;;;;48.58;4.28;;;;;;;;;;4972594;28;20046;-84
2022/03/24 03:35:43;;;;;;;4.20;2.45;;;;;;;;;;4945644;28;20455;-84
2022/03/24 03:38:10;;;;;;;2.90;2.15;;;;;;;;;;4957314;28;20039;-83
2022/03/24 03:40:37;;;;;;;2.25;1.77;;;;;;;;;;4956494;28;20062;-83
2022/03/24 03:43:03;;;;;;;10.60;4.97;;;;;;;;;;4952079;28;20523;-84
2022/03/24 03:45:29;;;;;;;1.15;1.05;;;;;;;;;;4968220;28;20043;-84
2022/03/24 03:47:54;;;;;;;1.73;1.30;;;;;;;;;;4957262;28;20053;-84
2022/03/24 03:50:21;;;;;;;6.03;3.30;;;;;;;;;;4979533;28;20404;-84
2022/03/24 03:52:48;;;;;;;0.95;0.95;;;;;;;;;;4967298;28;20408;-83
2022/03/24 03:55:24;;;;;;;4.57;3.28;;;;;;;;;;4950949;28;20046;-84
2022/03/24 03:57:50;;;;;;;6.43;3.35;;;;;;;;;;4957887;28;20475;-83
2022/03/24 04:03:04;;;;;;;1.23;1.08;;;;;;;;;;4967097;28;20469;-83
2022/03/24 04:05:33;;;;;;;2.58;1.90;;;;;;;;;;4947999;28;20047;-83
2022/03/24 04:08:03;;;;;;;2.85;2.53;;;;;;;;;;4957427;28;20497;-83
2022/03/24 04:10:30;;;;;;;3.00;2.20;;;;;;;;;;4957241;28;20484;-84
2022/03/24 04:12:57;;;;;;;3.83;3.25;;;;;;;;;;4967034;28;20245;-84
2022/03/24 04:15:23;;;;;;;0.65;0.65;;;;;;;;;;4947700;28;20133;-84
2022/03/24 04:17:50;;;;;;;0.40;0.40;;;;;;;;;;4953727;28;20506;-83
2022/03/24 04:20:20;;;;;;;2.72;0.98;;;;;;;;;;4953534;28;20046;-83
2022/03/24 04:22:48;;;;;;;0.80;0.80;;;;;;;;;;4953732;28;20045;-84
2022/03/24 04:25:14;;;;;;;0.40;0.40;;;;;;;;;;4956804;28;20385;-83
2022/03/24 04:27:40;;;;;;;0.60;0.60;;;;;;;;;;4947197;28;20046;-83
2022/03/24 04:30:08;;;;;;;5.07;2.90;;;;;;;;;;4950780;28;20663;-84
2022/03/24 04:32:34;;;;;;;6.47;2.50;;;;;;;;;;4946504;28;20489;-83
2022/03/24 04:35:00;;;;;;;1.90;1.60;;;;;;;;;;4956907;28;20053;-83
2022/03/24 04:37:33;;;;;;;5.22;1.38;;;;;;;;;;4975049;28;20038;-84
2022/03/24 04:39:59;;;;;;;3.28;2.33;;;;;;;;;;4947845;28;20046;-85
2022/03/24 04:42:25;;;;;;;1.42;1.33;;;;;;;;;;4956520;28;20038;-84
2022/03/24 04:44:51;;;;;;;1.33;1.02;;;;;;;;;;4946079;28;20074;-83
2022/03/24 04:47:17;;;;;;;2.13;1.88;;;;;;;;;;4965542;28;20038;-84
2022/03/24 04:49:44;;;;;;;8.90;6.03;;;;;;;;;;4962750;28;20089;-84
2022/03/24 04:52:10;;;;;;;1.17;0.95;;;;;;;;;;4948680;28;20039;-84
2022/03/24 04:54:36;;;;;;;0.40;0.40;;;;;;;;;;4950095;28;20108;-83
2022/03/24 04:57:02;;;;;;;1.52;1.17;;;;;;;;;;4949737;28;20397;-84
2022/03/24 04:59:28;;;;;;;0.50;0.50;;;;;;;;;;4949999;28;20448;-84
2022/03/24 05:01:58;;;;;;;0.80;0.80;;;;;;;;;;4946859;28;20039;-84
2022/03/24 05:04:24;;;;;;;0.77;0.77;;;;;;;;;;4952557;28;20034;-85
2022/03/24 05:06:50;;;;;;;1.20;1.10;;;;;;;;;;4954442;28;20045;-84
2022/03/24 05:09:18;;;;;;;1.27;1.17;;;;;;;;;;4948152;28;20468;-84
2022/03/24 05:11:44;;;;;;;0.57;0.57;;;;;;;;;;4948230;28;20506;-84
2022/03/24 05:14:10;;;;;;;1.70;1.58;;;;;;;;;;4954298;28;20460;-84
2022/03/24 05:16:37;;;;;;;1.75;1.30;;;;;;;;;;4949509;28;20049;-83
2022/03/24 05:19:03;;;;;;;0.75;0.73;;;;;;;;;;4943076;28;20046;-85
2022/03/24 05:21:31;;;;;;;1.15;1.00;;;;;;;;;;4962081;28;20042;-84
2022/03/24 05:23:57;;;;;;;0.70;0.70;;;;;;;;;;4945432;29;20075;-84
2022/03/24 05:26:24;;;;;;;2.47;1.58;;;;;;;;;;4944327;28;20078;-84
2022/03/24 05:28:50;;;;;;;0.82;0.80;;;;;;;;;;4961049;28;20121;-83
2022/03/24 05:31:17;;;;;;;1.98;1.77;;;;;;;;;;4955874;28;20056;-84
2022/03/24 05:33:44;;;;;;;4.20;2.42;;;;;;;;;;4949347;28;20054;-85
2022/03/24 05:36:10;;;;;;;1.85;1.17;;;;;;;;;;4961139;28;20043;-84
2022/03/24 05:38:36;;;;;;;1.10;1.00;;;;;;;;;;4944105;28;20507;-84
2022/03/24 05:41:03;;;;;;;0.35;0.35;;;;;;;;;;4947928;28;20034;-84
2022/03/24 05:43:30;;;;;;;0.52;0.50;;;;;;;;;;4944205;28;20043;-84
2022/03/24 05:45:56;;;;;;;2.42;2.10;;;;;;;;;;4941973;28;20496;-85
2022/03/24 05:48:22;;;;;;;2.88;2.13;;;;;;;;;;4950412;28;20435;-85
2022/03/24 05:50:48;;;;;;;2.50;0.98;;;;;;;;;;4944434;28;20038;-84
2022/03/24 05:53:15;;;;;;;2.72;2.33;;;;;;;;;;4951563;28;20105;-85
2022/03/24 05:55:41;;;;;;;0.95;0.80;;;;;;;;;;4926409;28;20055;-85
2022/03/24 05:58:07;;;;;;;1.05;0.98;;;;;;;;;;4952255;28;20039;-85
2022/03/24 06:00:37;;;;;;;0.98;0.82;;;;;;;;;;4948452;28;20093;-84
2022/03/24 06:03:05;;;;;;;1.05;1.02;;;;;;;;;;4954741;28;20506;-84
2022/03/24 06:05:31;;;;;;;0.40;0.40;;;;;;;;;;4942095;28;20049;-86
2022/03/24 06:08:01;;;;;;;3.75;2.50;;;;;;;;;;4942406;28;20105;-83
2022/03/24 06:10:28;;;;;;;3.13;2.70;;;;;;;;;;4942336;28;20054;-84
2022/03/24 06:12:54;;;;;;;0.50;0.50;;;;;;;;;;4941987;28;20073;-84
2022/03/24 06:15:21;;;;;;;51.03;4.90;;;;;;;;;;4943303;28;20046;-85
2022/03/24 06:17:47;;;;;;;1.45;1.27;;;;;;;;;;4974811;28;20081;-84
2022/03/24 06:20:13;;;;;;;2.10;1.17;;;;;;;;;;4952054;28;20074;-85
2022/03/24 06:22:43;;;;;;;2.35;2.15;;;;;;;;;;4954408;28;20043;-83
2022/03/24 06:25:10;;;;;;;1.45;1.35;;;;;;;;;;4946002;28;20034;-83
2022/03/24 06:27:36;;;;;;;1.58;1.35;;;;;;;;;;4944216;28;20126;-83
2022/03/24 06:30:05;;;;;;;0.50;0.50;;;;;;;;;;4945378;28;20501;-84
2022/03/24 06:32:31;;;;;;;3.42;2.67;;;;;;;;;;4948060;28;20400;-83
2022/03/24 06:34:59;;;;;;;5.70;2.67;;;;;;;;;;4940926;28;20043;-83
2022/03/24 06:37:26;;;;;;;2.55;1.17;;;;;;;;;;4942721;28;20042;-83
2022/03/24 06:39:53;;;;;;;6.25;3.13;;;;;;;;;;4953314;28;20045;-83
2022/03/24 06:42:19;;;;;;;1.17;1.08;;;;;;;;;;4941556;28;20073;-85
2022/03/24 06:44:45;;;;;;;3.83;2.25;;;;;;;;;;4945723;28;21369;-84
2022/03/24 06:47:11;;;;;;;3.80;3.20;;;;;;;;;;4947922;28;20042;-84
2022/03/24 06:49:37;;;;;;;9.63;4.55;;;;;;;;;;4939982;28;20073;-84
2022/03/24 06:52:03;;;;;;;3.10;2.47;;;;;;;;;;4944142;28;20053;-84
2022/03/24 06:54:29;;;;;;;4.05;2.25;;;;;;;;;;4947980;28;20039;-84
2022/03/24 06:56:55;;;;;;;2.13;1.55;;;;;;;;;;4946931;28;20542;-85
2022/03/24 06:59:21;;;;;;;7.20;4.82;;;;;;;;;;4939658;28;20389;-84
2022/03/24 07:01:49;;;;;;;3.42;1.52;;;;;;;;;;4939455;28;20045;-87
2022/03/24 07:04:16;;;;;;;1.65;1.42;;;;;;;;;;4957174;28;20103;-87
2022/03/24 07:06:42;;;;;;;1.95;1.80;;;;;;;;;;4947839;28;20077;-87
2022/03/24 07:09:12;;;;;;;3.28;2.10;;;;;;;;;;4945076;28;20042;-87
2022/03/24 07:11:39;;;;;;;3.60;3.05;;;;;;;;;;4957875;28;20066;-85
2022/03/24 07:14:05;;;;;;;4.88;2.67;;;;;;;;;;4944643;28;20492;-87
2022/03/24 07:16:39;;;;;;;1.38;1.27;;;;;;;;;;4942781;28;20035;-88
2022/03/24 07:19:06;;;;;;;5.68;4.13;;;;;;;;;;4942768;28;20425;-84
2022/03/24 07:21:34;;;;;;;12.82;6.88;;;;;;;;;;4942458;28;20039;-85
2022/03/24 07:24:05;;;;;;;17.90;4.70;;;;;;;;;;4958736;28;20046;-86
2022/03/24 07:26:31;;;;;;;6.75;3.95;;;;;;;;;;4951541;28;20510;-86
2022/03/24 07:28:57;;;;;;;13.38;6.05;;;;;;;;;;4948980;28;20047;-86
2022/03/24 07:31:24;;;;;;;9.98;5.30;;;;;;;;;;4952928;28;20125;-85
2022/03/24 07:33:51;;;;;;;3.28;2.95;;;;;;;;;;4941841;28;20088;-85
2022/03/24 07:36:18;;;;;;;9.95;3.95;;;;;;;;;;4949888;28;20054;-86
2022/03/24 07:38:44;;;;;;;1.85;1.30;;;;;;;;;;4957397;28;20046;-90
2022/03/24 07:41:10;;;;;;;0.57;0.57;;;;;;;;;;4961515;28;20181;-89
2022/03/24 07:43:36;;;;;;;2.35;2.15;;;;;;;;;;4964080;28;20069;-88
2022/03/24 07:46:02;;;;;;;4.15;3.75;;;;;;;;;;4945042;28;20046;-87
2022/03/24 07:48:30;;;;;;;2.85;2.17;;;;;;;;;;4947275;29;20485;-86
2022/03/24 07:50:57;;;;;;;1.52;1.00;;;;;;;;;;4975012;28;20125;-86
2022/03/24 07:53:24;;;;;;;7.35;3.08;;;;;;;;;;4955611;28;20049;-87
2022/03/24 07:55:51;;;;;;;11.05;4.43;;;;;;;;;;4966282;28;20050;-85
2022/03/24 07:58:18;;;;;;;2.22;1.10;;;;;;;;;;4954036;28;20042;-88
2022/03/24 08:00:44;;;;;;;6.40;3.97;;;;;;;;;;4956892;28;20075;-89
2022/03/24 08:03:12;;;;;;;10.25;6.07;;;;;;;;;;4947376;28;20377;-87
2022/03/24 08:05:37;;;;;;;11.52;5.57;;;;;;;;;;4957636;28;20042;-87
2022/03/24 08:08:08;;;;;;;7.32;4.25;;;;;;;;;;4952264;28;20054;-85
2022/03/24 08:10:34;;;;;;;4.35;3.05;;;;;;;;;;4955538;28;20097;-86
2022/03/24 08:13:00;;;;;;;0.75;0.75;;;;;;;;;;4956245;28;20046;-90
2022/03/24 08:15:26;;;;;;;10.95;5.93;;;;;;;;;;4945279;28;20129;-89
2022/03/24 08:17:52;;;;;;;0.35;0.35;;;;;;;;;;4957661;28;20046;-87
2022/03/24 08:20:18;;;;;;;8.60;4.88;;;;;;;;;;4960790;28;20038;-88
2022/03/24 08:22:44;;;;;;;1.27;1.17;;;;;;;;;;4951616;28;20039;-89
2022/03/24 08:25:10;;;;;;;4.95;3.08;;;;;;;;;;4949441;28;20042;-88
2022/03/24 08:27:36;;;;;;;5.13;4.28;;;;;;;;;;4945277;28;20054;-85
2022/03/24 08:30:06;;;;;;;0.73;0.57;;;;;;;;;;4950266;28;20038;-87
2022/03/24 08:32:40;;;;;;;3.10;2.65;;;;;;;;;;4946670;28;20046;-86
2022/03/24 08:35:07;;;;;;;0.70;0.70;;;;;;;;;;4952665;28;20047;-85
2022/03/24 08:37:33;;;;;;;4.13;1.45;;;;;;;;;;4951278;28;20054;-85
2022/03/24 08:39:59;;;;;;;0.32;0.32;;;;;;;;;;4980020;28;20031;-87
2022/03/24 08:42:25;;;;;;;2.45;1.48;;;;;;;;;;4948952;28;20101;-88
2022/03/24 08:44:51;;;;;;;0.82;0.73;;;;;;;;;;4948231;28;20039;-88
2022/03/24 08:47:18;;;;;;;7.53;2.67;;;;;;;;;;4961134;28;20082;-88
2022/03/24 08:49:44;;;;;;;1.92;1.83;;;;;;;;;;4949209;28;20135;-86
2022/03/24 08:52:10;;;;;;;5.55;3.17;;;;;;;;;;4975663;28;20495;-86
2022/03/24 08:54:41;;;;;;;6.18;4.28;;;;;;;;;;4960010;28;20574;-86
2022/03/24 08:57:07;;;;;;;9.25;5.35;;;;;;;;;;4942194;28;20152;-85
2022/03/24 08:59:33;;;;;;;3.45;2.35;;;;;;;;;;4952691;28;20042;-85
2022/03/24 09:01:59;;;;;;;1.75;1.63;;;;;;;;;;4956465;28;20042;-86
2022/03/24 09:04:26;;;;;;;5.28;4.78;;;;;;;;;;4948663;28;20034;-85
2022/03/24 09:06:53;;;;;;;13.75;7.82;;;;;;;;;;4945386;28;20065;-86
2022/03/24 09:09:23;;;;;;;1.98;1.45;;;;;;;;;;4952858;28;20038;-86
2022/03/24 09:11:50;;;;;;;4.30;2.28;;;;;;;;;;4954673;28;20102;-87
2022/03/24 09:14:16;;;;;;;5.65;3.58;;;;;;;;;;4948072;28;20081;-88
2022/03/24 09:16:42;;;;;;;9.35;5.85;;;;;;;;;;4962500;28;20504;-88
2022/03/24 09:19:08;;;;;;;36.38;11.75;;;;;;;;;;4952641;28;20047;-88
2022/03/24 09:21:39;;;;;;;4.40;2.92;;;;;;;;;;4945862;28;20039;-88
2022/03/24 09:24:05;;;;;;;26.58;11.90;;;;;;;;;;4951971;28;20035;-87
2022/03/24 09:26:33;;;;;;;32.90;10.05;;;;;;;;;;4942668;28;20475;-84
2022/03/24 09:28:59;;;;;;;16.48;8.38;;;;;;;;;;4951008;28;20043;-86
2022/03/24 09:31:25;;;;;;;24.67;12.57;;;;;;;;;;4948677;28;20097;-84
2022/03/24 09:33:51;;;;;;;22.02;6.75;;;;;;;;;;4952754;28;20134;-85
2022/03/24 09:36:18;;;;;;;8.02;4.50;;;;;;;;;;4965302;28;20046;-89
2022/03/24 09:38:44;;;;;;;4.60;2.92;;;;;;;;;;4953794;28;20062;-87
2022/03/24 09:41:13;;;;;;;23.50;11.10;;;;;;;;;;4951143;28;20038;-87
2022/03/24 09:43:41;;;;;;;0.95;0.93;;;;;;;;;;4951544;28;20034;-89
2022/03/24 09:46:07;;;;;;;1.73;1.30;;;;;;;;;;4952756;28;20053;-87
2022/03/24 09:48:33;;;;;;;9.10;8.10;;;;;;;;;;4965665;28;20134;-86
2022/03/24 09:50:59;;;;;;;3.03;1.50;;;;;;;;;;4951740;28;20077;-86
2022/03/24 09:53:25;;;;;;;1.75;1.65;;;;;;;;;;4952422;28;20038;-85
2022/03/24 09:55:51;;;;;;;10.20;4.00;;;;;;;;;;4948611;28;20052;-86
2022/03/24 09:58:17;;;;;;;4.93;3.53;;;;;;;;;;4971616;28;20133;-85
2022/03/24 10:00:47;;;;;;;10.50;5.53;;;;;;;;;;4961115;28;20069;-85
2022/03/24 10:03:16;;;;;;;8.77;4.80;;;;;;;;;;4936232;28;20102;-86
2022/03/24 10:09:06;;;;;;;13.73;5.57;;;;;;;;;;4990126;28;20084;-87
2022/03/24 10:11:35;;;;;;;3.42;2.38;;;;;;;;;;4952960;28;20034;-87
2022/03/24 10:14:01;;;;;;;17.30;8.23;;;;;;;;;;4948102;28;20447;-86
2022/03/24 10:16:34;;;;;;;8.25;2.95;;;;;;;;;;4961403;28;20070;-86
2022/03/24 10:19:07;;;;;;;6.13;3.92;;;;;;;;;;4948717;28;20521;-86
2022/03/24 10:21:38;;;;;;;14.85;6.10;;;;;;;;;;4953009;28;20037;-86
2022/03/24 10:24:10;;;;;;;21.48;9.80;;;;;;;;;;4961067;28;20062;-84
2022/03/24 10:26:44;;;;;;;2.00;1.00;;;;;;;;;;4951886;28;20043;-85
2022/03/24 10:29:20;;;;;;;9.25;3.13;;;;;;;;;;4966626;28;20050;-85
2022/03/24 10:31:51;;;;;;;2.35;2.13;;;;;;;;;;4944973;28;20555;-85
2022/03/24 10:34:51;;;;;;;28.70;12.93;;;;;;;;;;4949665;28;20121;-84
2022/03/24 10:37:18;;;;;;;28.83;7.93;;;;;;;;;;4941390;28;20401;-84
2022/03/24 10:39:58;;;;;;;7.97;5.10;;;;;;;;;;4964028;28;20128;-85
2022/03/24 10:42:26;;;;;;;9.13;5.00;;;;;;;;;;4942203;28;20678;-85
2022/03/24 10:45:24;;;;;;;17.08;7.43;;;;;;;;;;4949819;28;20045;-84
2022/03/24 10:48:04;;;;;;;3.80;2.70;;;;;;;;;;4959598;28;20533;-85
2022/03/24 10:50:42;;;;;;;2.78;2.58;;;;;;;;;;4946236;28;20105;-85
2022/03/24 10:53:08;;;;;;;7.47;3.65;;;;;;;;;;4953170;28;20122;-82
2022/03/24 10:55:51;;;;;;;2.75;1.80;;;;;;;;;;4942175;28;20070;-83
2022/03/24 10:58:20;;;;;;;10.88;6.05;;;;;;;;;;4940952;28;20043;-84
2022/03/24 11:00:48;;;;;;;4.35;3.22;;;;;;;;;;4943791;28;20116;-84
2022/03/24 11:03:19;;;;;;;5.68;3.08;;;;;;;;;;4947469;28;20044;-83
2022/03/24 11:05:46;;;;;;;8.32;7.28;;;;;;;;;;4961203;28;20038;-84
2022/03/24 11:08:15;;;;;;;8.07;4.57;;;;;;;;;;4943851;28;20505;-85
2022/03/24 11:10:46;;;;;;;7.13;3.40;;;;;;;;;;4937939;28;20051;-83
2022/03/24 11:13:14;;;;;;;7.35;6.72;;;;;;;;;;4947955;28;20566;-85
2022/03/24 11:15:41;;;;;;;23.58;7.20;;;;;;;;;;4948736;28;20053;-85
2022/03/24 11:18:09;;;;;;;17.17;4.40;;;;;;;;;;4950777;28;20047;-84
2022/03/24 11:20:37;;;;;;;2.28;1.48;;;;;;;;;;4973554;28;20412;-84
2022/03/24 11:23:10;;;;;;;1.85;0.98;;;;;;;;;;4948088;28;20035;-84
2022/03/24 11:25:36;;;;;;;3.40;1.58;;;;;;;;;;4950377;28;20047;-83
2022/03/24 11:28:04;;;;;;;1.65;0.57;;;;;;;;;;4954569;28;20056;-85
2022/03/24 11:30:32;;;;;;;5.10;1.17;;;;;;;;;;4959588;28;20035;-85
2022/03/24 11:32:59;;;;;;;1.80;1.65;;;;;;;;;;4963051;28;20047;-85
2022/03/24 11:38:21;;;;;;;8.93;4.30;;;;;;;;;;4959722;28;20051;-84
2022/03/24 11:40:47;;;;;;;2.83;1.35;;;;;;;;;;4962742;28;20134;-85
2022/03/24 11:43:21;;;;;;;0.10;0.10;;;;;;;;;;4946832;28;20074;-84
2022/03/24 11:46:02;;;;;;;3.10;2.43;;;;;;;;;;4952751;28;20047;-84
2022/03/24 11:48:34;;;;;;;7.63;3.50;;;;;;;;;;4949569;28;20302;-85
2022/03/24 11:51:04;;;;;;;1.75;1.35;;;;;;;;;;4948248;28;20404;-85
2022/03/24 11:53:34;;;;;;;0.80;0.60;;;;;;;;;;4943914;28;20047;-86
2022/03/24 11:56:04;;;;;;;1.98;1.15;;;;;;;;;;4964001;28;20502;-84
2022/03/24 11:58:46;;;;;;;3.22;1.98;;;;;;;;;;4958578;28;20035;-85
2022/03/24 12:01:24;;;;;;;3.47;2.47;;;;;;;;;;4957140;28;20050;-83
2022/03/24 12:04:01;;;;;;;10.60;6.38;;;;;;;;;;4967725;28;20054;-84
2022/03/24 12:07:00;;;;;;;8.60;4.75;;;;;;;;;;4944469;28;20069;-87
2022/03/24 12:09:28;;;;;;;1.58;1.23;;;;;;;;;;4958082;28;20046;-88
2022/03/24 12:12:07;;;;;;;9.85;4.13;;;;;;;;;;4948517;28;20046;-87
2022/03/24 12:14:33;;;;;;;1.58;1.25;;;;;;;;;;4950154;28;20054;-89
2022/03/24 12:17:15;;;;;;;1.38;1.00;;;;;;;;;;4962730;28;20073;-92
2022/03/24 12:19:43;;;;;;;22.38;6.38;;;;;;;;;;4953738;28;20048;-90
2022/03/24 12:22:35;;;;;;;1.75;1.05;;;;;;;;;;4954236;28;20049;-90
2022/03/24 12:25:02;;;;;;;6.47;3.60;;;;;;;;;;4976114;28;20035;-88
2022/03/24 12:27:30;;;;;;;6.65;1.13;;;;;;;;;;4947829;28;20041;-86
2022/03/24 12:30:20;;;;;;;0.98;0.40;;;;;;;;;;4957237;28;20050;-87
2022/03/24 12:33:04;;;;;;;5.25;2.03;;;;;;;;;;4950690;28;20176;-87
2022/03/24 12:35:49;;;;;;;13.65;7.38;;;;;;;;;;4954867;28;20070;-91
2022/03/24 12:38:30;;;;;;;0.50;0.28;;;;;;;;;;4964241;28;20126;-87
2022/03/24 12:41:11;;;;;;;2.90;1.60;;;;;;;;;;4968407;28;20042;-87
2022/03/24 12:43:56;;;;;;;17.40;1.88;;;;;;;;;;4957818;28;20670;-90
2022/03/24 12:46:35;;;;;;;3.30;1.27;;;;;;;;;;4962910;28;20038;-85
2022/03/24 12:49:16;;;;;;;1.85;1.38;;;;;;;;;;4933387;29;20047;-84
2022/03/24 12:51:52;;;;;;;7.80;4.00;;;;;;;;;;4967204;28;20046;-87
2022/03/24 12:54:20;;;;;;;0.40;0.40;;;;;;;;;;4963564;28;20054;-87
2022/03/24 12:56:46;;;;;;;2.17;1.05;;;;;;;;;;4947020;28;20133;-86
2022/03/24 12:59:13;;;;;;;15.98;7.80;;;;;;;;;;4943320;28;20047;-88
2022/03/24 13:01:39;;;;;;;4.18;2.08;;;;;;;;;;4953572;28;20040;-88
2022/03/24 13:04:21;;;;;;;0.20;0.20;;;;;;;;;;4946275;28;20043;-88
2022/03/24 13:06:47;;;;;;;2.38;1.60;;;;;;;;;;4951571;29;20508;-88
2022/03/24 13:09:37;;;;;;;12.85;3.65;;;;;;;;;;4945389;28;20043;-88
2022/03/24 13:12:08;;;;;;;9.18;3.47;;;;;;;;;;4943391;28;20050;-86
2022/03/24 13:14:47;;;;;;;9.70;4.43;;;;;;;;;;4946363;28;20043;-87
2022/03/24 13:17:14;;;;;;;3.88;1.85;;;;;;;;;;4957713;28;20057;-85
2022/03/24 13:19:46;;;;;;;3.75;3.40;;;;;;;;;;4957623;28;20431;-87
2022/03/24 13:22:26;;;;;;;3.15;1.50;;;;;;;;;;4956388;28;20065;-87
2022/03/24 13:28:15;;;;;;;10.38;3.92;;;;;;;;;;4989613;28;20041;-87
2022/03/24 13:30:43;;;;;;;2.17;1.20;;;;;;;;;;4950451;28;20137;-86
2022/03/24 13:33:12;;;;;;;5.20;2.30;;;;;;;;;;4957892;28;20574;-87
2022/03/24 13:35:42;;;;;;;15.15;6.68;;;;;;;;;;4966240;28;20042;-87
2022/03/24 13:38:09;;;;;;;4.20;2.90;;;;;;;;;;4947593;28;20042;-87
2022/03/24 13:40:37;;;;;;;6.20;2.20;;;;;;;;;;4952409;28;20066;-86
2022/03/24 13:43:04;;;;;;;3.10;1.38;;;;;;;;;;4958951;28;20073;-86
2022/03/24 13:45:48;;;;;;;3.33;2.03;;;;;;;;;;4952414;28;20051;-86
2022/03/24 13:48:15;;;;;;;1.02;0.93;;;;;;;;;;4943103;28;20042;-86
2022/03/24 13:50:42;;;;;;;14.05;5.82;;;;;;;;;;4968551;28;20081;-87
2022/03/24 13:53:15;;;;;;;3.83;1.60;;;;;;;;;;4951761;28;20042;-85
2022/03/24 13:56:03;;;;;;;30.48;14.20;;;;;;;;;;4943001;28;20047;-85
2022/03/24 13:58:29;;;;;;;20.23;8.00;;;;;;;;;;4951368;28;20113;-86
2022/03/24 14:01:02;;;;;;;18.83;6.63;;;;;;;;;;4957762;28;20534;-86
2022/03/24 14:03:28;;;;;;;16.55;8.02;;;;;;;;;;4949210;28;20038;-86
2022/03/24 14:06:02;;;;;;;17.20;6.15;;;;;;;;;;4955663;28;20042;-88
2022/03/24 14:08:48;;;;;;;13.98;6.55;;;;;;;;;;4944957;28;20050;-89
2022/03/24 14:11:21;;;;;;;10.93;4.65;;;;;;;;;;4958520;28;20050;-89
2022/03/24 14:14:03;;;;;;;1.55;1.13;;;;;;;;;;4962941;28;20082;-88
2022/03/24 14:16:49;;;;;;;12.80;5.18;;;;;;;;;;4952868;28;20073;-87
2022/03/24 14:19:17;;;;;;;24.58;10.40;;;;;;;;;;4945600;28;20047;-87
2022/03/24 14:22:03;;;;;;;16.27;5.03;;;;;;;;;;4956597;28;20610;-88
2022/03/24 14:24:37;;;;;;;3.03;2.15;;;;;;;;;;4956900;28;20046;-91
2022/03/24 14:27:05;;;;;;;15.77;8.63;;;;;;;;;;4971539;28;20462;-89
2022/03/24 14:29:41;;;;;;;17.73;5.90;;;;;;;;;;4955018;28;20068;-87
2022/03/24 14:32:08;;;;;;;24.30;6.25;;;;;;;;;;4943038;28;20051;-88
2022/03/24 14:34:35;;;;;;;11.57;6.53;;;;;;;;;;4968029;28;20049;-84
2022/03/24 14:37:10;;;;;;;1.52;0.90;;;;;;;;;;4952409;28;20039;-88
2022/03/24 14:39:44;;;;;;;8.45;2.60;;;;;;;;;;4968859;28;20047;-88
2022/03/24 14:42:10;;;;;;;8.88;4.95;;;;;;;;;;4957840;28;20039;-88
2022/03/24 14:44:37;;;;;;;8.70;4.43;;;;;;;;;;4945747;28;20045;-89
2022/03/24 14:47:03;;;;;;;14.68;6.35;;;;;;;;;;4969990;28;20042;-88
2022/03/24 14:49:29;;;;;;;9.05;4.72;;;;;;;;;;4973667;28;20126;-86
2022/03/24 14:51:55;;;;;;;2.83;1.75;;;;;;;;;;4953314;28;20401;-89
2022/03/24 14:54:21;;;;;;;0.95;0.85;;;;;;;;;;4960737;28;20070;-89
2022/03/24 14:56:50;;;;;;;5.13;4.38;;;;;;;;;;4971413;28;20133;-86
2022/03/24 14:59:17;;;;;;;11.98;5.72;;;;;;;;;;4969640;28;20484;-87
2022/03/24 15:01:51;;;;;;;12.15;4.57;;;;;;;;;;4951711;28;20049;-87
2022/03/24 15:04:17;;;;;;;6.47;2.05;;;;;;;;;;4949192;28;20039;-88
2022/03/24 15:06:43;;;;;;;2.42;1.52;;;;;;;;;;4951122;28;20045;-89